createdAt,value
2018-11-27T00:00:25.136Z,84.50
2018-11-27T00:02:56.157Z,84.60
2018-11-27T00:05:24.669Z,84.60
2018-11-27T00:07:53.265Z,84.60
2018-11-27T00:10:21.732Z,84.50
2018-11-27T00:12:50.201Z,84.70
2018-11-27T00:15:19.029Z,84.70
2018-11-27T00:17:47.510Z,84.70
2018-11-27T00:20:16.071Z,84.80
2018-11-27T00:22:44.680Z,85.00
2018-11-27T00:25:17.267Z,85.20
2018-11-27T00:27:45.936Z,85.30
2018-11-27T00:30:16.032Z,85.30
2018-11-27T00:32:44.622Z,85.40
2018-11-27T00:35:14.422Z,85.40
2018-11-27T00:37:42.936Z,85.40
2018-11-27T00:40:20.672Z,85.20
2018-11-27T00:42:49.391Z,85.30
2018-11-27T00:45:19.007Z,85.20
2018-11-27T00:47:48.620Z,85.20
2018-11-27T00:50:18.173Z,85.00
2018-11-27T00:52:46.616Z,85.00
2018-11-27T00:55:16.007Z,84.90
2018-11-27T00:57:45.533Z,84.90
2018-11-27T01:00:16.374Z,84.80
2018-11-27T01:02:45.207Z,84.50
2018-11-27T01:05:15.677Z,84.50
2018-11-27T01:07:44.405Z,84.00
2018-11-27T01:10:16.192Z,84.40
2018-11-27T01:12:44.820Z,84.50
2018-11-27T01:15:14.527Z,84.60
2018-11-27T01:17:44.426Z,84.60
2018-11-27T01:20:14.290Z,84.80
2018-11-27T01:22:42.767Z,84.70
2018-11-27T01:25:11.505Z,84.70
2018-11-27T01:27:39.984Z,84.70
2018-11-27T01:30:13.929Z,84.80
2018-11-27T01:32:42.500Z,84.80
2018-11-27T01:35:12.127Z,84.90
2018-11-27T01:37:40.687Z,84.90
2018-11-27T01:40:17.990Z,85.10
2018-11-27T01:42:47.441Z,85.00
2018-11-27T01:45:17.255Z,84.80
2018-11-27T01:47:45.971Z,84.60
2018-11-27T01:50:15.410Z,84.60
2018-11-27T01:52:43.875Z,85.40
2018-11-27T01:55:15.742Z,84.60
2018-11-27T01:57:44.311Z,84.40
2018-11-27T02:00:29.207Z,84.30
2018-11-27T02:02:58.869Z,84.40
2018-11-27T02:05:27.846Z,84.10
2018-11-27T02:07:56.637Z,84.40
2018-11-27T02:10:25.398Z,84.30
2018-11-27T02:12:54.899Z,84.40
2018-11-27T02:15:28.573Z,84.50
2018-11-27T02:17:57.204Z,84.40
2018-11-27T02:20:25.766Z,84.30
2018-11-27T02:22:54.377Z,84.20
2018-11-27T02:25:24.035Z,84.20
2018-11-27T02:27:52.618Z,84.20
2018-11-27T02:30:22.400Z,84.30
2018-11-27T02:32:51.346Z,84.30
2018-11-27T02:35:23.013Z,84.50
2018-11-27T02:37:52.508Z,84.60
2018-11-27T02:40:20.980Z,84.50
2018-11-27T02:42:49.528Z,84.70
2018-11-27T02:45:19.898Z,84.70
2018-11-27T02:47:49.248Z,84.90
2018-11-27T02:50:18.842Z,85.00
2018-11-27T02:52:47.442Z,85.00
2018-11-27T02:55:16.985Z,85.00
2018-11-27T02:57:45.773Z,85.00
2018-11-27T03:00:15.532Z,85.00
2018-11-27T03:02:44.030Z,84.90
2018-11-27T03:05:18.112Z,84.90
2018-11-27T03:07:46.602Z,84.90
2018-11-27T03:10:15.864Z,85.10
2018-11-27T03:12:44.388Z,85.00
2018-11-27T03:15:13.996Z,85.10
2018-11-27T03:17:42.519Z,84.90
2018-11-27T03:20:15.364Z,84.70
2018-11-27T03:22:43.979Z,85.40
2018-11-27T03:25:13.563Z,84.70
2018-11-27T03:27:42.101Z,84.70
2018-11-27T03:30:14.591Z,84.70
2018-11-27T03:32:43.283Z,84.80
2018-11-27T03:35:13.768Z,84.90
2018-11-27T03:37:42.394Z,84.60
2018-11-27T03:40:17.136Z,84.80
2018-11-27T03:42:45.903Z,84.80
2018-11-27T03:45:15.081Z,84.70
2018-11-27T03:47:43.735Z,84.90
2018-11-27T03:50:14.214Z,84.90
2018-11-27T03:52:42.898Z,85.00
2018-11-27T03:55:12.304Z,86.00
2018-11-27T03:57:40.839Z,85.40
2018-11-27T04:00:15.011Z,85.50
2018-11-27T04:02:43.932Z,85.50
2018-11-27T04:05:13.067Z,85.60
2018-11-27T04:07:41.853Z,85.80
2018-11-27T04:10:14.797Z,85.80
2018-11-27T04:12:43.462Z,85.90
2018-11-27T04:15:12.693Z,86.00
2018-11-27T04:17:41.423Z,85.90
2018-11-27T04:20:10.980Z,85.90
2018-11-27T04:22:39.863Z,86.00
2018-11-27T04:25:16.330Z,86.20
2018-11-27T04:27:45.567Z,86.40
2018-11-27T04:30:16.548Z,86.50
2018-11-27T04:32:45.227Z,86.60
2018-11-27T04:35:14.544Z,86.60
2018-11-27T04:37:43.170Z,86.60
2018-11-27T04:40:14.802Z,86.60
2018-11-27T04:42:43.372Z,86.60
2018-11-27T04:45:16.130Z,86.60
2018-11-27T04:47:44.818Z,86.70
2018-11-27T04:50:14.320Z,86.70
2018-11-27T04:52:43.139Z,86.60
2018-11-27T04:55:13.941Z,86.60
2018-11-27T04:57:42.863Z,86.60
2018-11-27T05:00:18.299Z,86.80
2018-11-27T05:02:46.804Z,86.80
2018-11-27T05:05:15.410Z,86.70
2018-11-27T05:07:44.218Z,86.60
2018-11-27T05:10:16.558Z,86.50
2018-11-27T05:12:45.404Z,86.30
2018-11-27T05:15:15.920Z,86.10
2018-11-27T05:17:48.020Z,86.20
2018-11-27T05:20:14.313Z,86.20
2018-11-27T05:22:42.847Z,86.20
2018-11-27T05:25:12.380Z,86.10
2018-11-27T05:27:42.083Z,86.10
2018-11-27T05:30:14.055Z,86.10
2018-11-27T05:32:42.582Z,86.10
2018-11-27T05:35:13.348Z,86.10
2018-11-27T05:37:42.480Z,86.10
2018-11-27T05:40:13.285Z,86.10
2018-11-27T05:42:41.956Z,86.10
2018-11-27T05:45:12.008Z,86.10
2018-11-27T05:47:40.555Z,86.10
2018-11-27T05:50:12.501Z,86.10
2018-11-27T05:52:40.963Z,86.20
2018-11-27T05:55:10.653Z,86.10
2018-11-27T05:57:39.455Z,86.20
2018-11-27T06:00:12.771Z,86.20
2018-11-27T06:02:41.430Z,86.20
2018-11-27T06:05:17.696Z,86.30
2018-11-27T06:07:46.252Z,86.20
2018-11-27T06:10:15.752Z,86.20
2018-11-27T06:12:44.526Z,86.20
2018-11-27T06:15:18.989Z,86.50
2018-11-27T06:17:49.787Z,86.60
2018-11-27T06:20:19.387Z,86.70
2018-11-27T06:22:47.850Z,86.60
2018-11-27T06:25:17.582Z,86.60
2018-11-27T06:27:48.145Z,86.60
2018-11-27T06:30:18.016Z,86.60
2018-11-27T06:32:46.626Z,86.60
2018-11-27T06:35:18.707Z,86.50
2018-11-27T06:37:47.228Z,86.10
2018-11-27T06:40:17.959Z,86.00
2018-11-27T06:42:46.700Z,86.20
2018-11-27T06:45:18.247Z,86.30
2018-11-27T06:47:47.700Z,86.40
2018-11-27T06:50:16.755Z,86.50
2018-11-27T06:52:45.378Z,86.60
2018-11-27T06:55:14.841Z,86.60
2018-11-27T06:57:43.384Z,86.50
2018-11-27T07:00:15.104Z,86.50
2018-11-27T07:02:43.675Z,86.50
2018-11-27T07:05:12.915Z,86.50
2018-11-27T07:07:42.029Z,86.70
2018-11-27T07:10:20.964Z,86.90
2018-11-27T07:12:50.764Z,86.80
2018-11-27T07:15:20.532Z,86.70
2018-11-27T07:17:49.286Z,87.00
2018-11-27T07:20:17.915Z,87.30
2018-11-27T07:22:46.656Z,87.70
2018-11-27T07:25:16.100Z,87.80
2018-11-27T07:27:46.959Z,87.50
2018-11-27T07:30:18.727Z,87.60
2018-11-27T07:32:47.236Z,88.00
2018-11-27T07:35:16.555Z,88.10
2018-11-27T07:37:45.056Z,88.30
2018-11-27T07:40:15.705Z,88.50
2018-11-27T07:42:44.451Z,88.70
2018-11-27T07:45:16.255Z,88.70
2018-11-27T07:47:44.834Z,88.70
2018-11-27T07:50:13.995Z,88.70
2018-11-27T07:52:42.545Z,88.90
2018-11-27T07:55:13.283Z,88.90
2018-11-27T07:57:41.977Z,87.90
2018-11-27T08:00:14.502Z,87.80
2018-11-27T08:02:44.159Z,87.70
2018-11-27T08:05:14.192Z,87.70
2018-11-27T08:07:43.947Z,87.70
2018-11-27T08:10:15.009Z,87.90
2018-11-27T08:12:43.483Z,88.00
2018-11-27T08:15:13.374Z,88.10
2018-11-27T08:17:42.305Z,88.10
2018-11-27T08:20:15.284Z,88.10
2018-11-27T08:22:43.768Z,88.10
2018-11-27T08:25:13.503Z,88.20
2018-11-27T08:27:42.137Z,88.00
2018-11-27T08:30:15.831Z,88.00
2018-11-27T08:32:44.500Z,88.20
2018-11-27T08:35:14.202Z,88.30
2018-11-27T08:37:43.087Z,88.30
2018-11-27T08:40:15.595Z,88.30
2018-11-27T08:42:44.157Z,88.40
2018-11-27T08:45:14.683Z,88.40
2018-11-27T08:47:43.401Z,88.10
2018-11-27T08:50:13.950Z,88.00
2018-11-27T08:52:46.704Z,88.00
2018-11-27T08:55:13.265Z,87.90
2018-11-27T08:57:43.173Z,87.70
2018-11-27T09:00:15.178Z,87.80
2018-11-27T09:02:43.975Z,87.70
2018-11-27T09:05:13.168Z,87.60
2018-11-27T09:07:42.011Z,87.50
2018-11-27T09:10:19.152Z,87.10
2018-11-27T09:12:47.735Z,87.00
2018-11-27T09:15:18.212Z,86.80
2018-11-27T09:17:55.314Z,86.40
2018-11-27T09:20:23.885Z,86.40
2018-11-27T09:22:52.507Z,86.10
2018-11-27T09:25:21.094Z,86.00
2018-11-27T09:27:49.693Z,85.80
2018-11-27T09:30:25.644Z,85.60
2018-11-27T09:32:55.268Z,85.50
2018-11-27T09:35:23.837Z,85.80
2018-11-27T09:37:52.412Z,85.10
2018-11-27T09:40:21.530Z,85.60
2018-11-27T09:42:49.976Z,83.10
2018-11-27T09:45:19.756Z,84.50
2018-11-27T09:47:52.582Z,85.10
2018-11-27T09:50:21.256Z,85.70
2018-11-27T09:52:49.838Z,87.00
2018-11-27T09:55:24.514Z,86.70
2018-11-27T09:57:58.759Z,86.70
2018-11-27T10:00:28.240Z,86.50
2018-11-27T10:02:58.183Z,86.40
2018-11-27T10:05:26.683Z,86.20
2018-11-27T10:07:55.485Z,86.50
2018-11-27T10:10:24.898Z,86.40
2018-11-27T10:12:53.627Z,85.90
2018-11-27T10:15:25.279Z,85.10
2018-11-27T10:17:56.841Z,85.40
2018-11-27T10:20:27.527Z,85.40
2018-11-27T10:22:56.120Z,85.10
2018-11-27T10:25:24.789Z,85.70
2018-11-27T10:27:53.429Z,85.80
2018-11-27T10:30:23.378Z,85.50
2018-11-27T10:32:53.054Z,85.50
2018-11-27T10:35:24.589Z,85.70
2018-11-27T10:37:53.234Z,85.60
2018-11-27T10:40:21.762Z,85.80
2018-11-27T10:42:51.027Z,85.60
2018-11-27T10:45:21.523Z,84.70
2018-11-27T10:47:51.239Z,84.50
2018-11-27T10:50:19.882Z,84.60
2018-11-27T10:52:49.498Z,85.70
2018-11-27T10:55:18.822Z,85.10
2018-11-27T10:57:47.510Z,85.30
2018-11-27T11:00:28.255Z,85.40
2018-11-27T11:03:02.267Z,85.80
2018-11-27T11:05:35.048Z,86.20
2018-11-27T11:08:03.761Z,86.70
2018-11-27T11:10:32.250Z,87.00
2018-11-27T11:13:00.721Z,87.30
2018-11-27T11:15:29.263Z,87.70
2018-11-27T11:17:57.719Z,87.70
2018-11-27T11:20:26.259Z,87.60
2018-11-27T11:22:54.996Z,87.80
2018-11-27T11:25:24.707Z,87.60
2018-11-27T11:27:54.842Z,86.50
2018-11-27T11:30:23.922Z,87.00
2018-11-27T11:32:52.457Z,86.70
2018-11-27T11:35:20.983Z,86.40
2018-11-27T11:37:50.030Z,85.20
2018-11-27T11:40:21.934Z,85.40
2018-11-27T11:42:52.585Z,83.80
2018-11-27T11:45:21.037Z,79.10
2018-11-27T11:47:49.665Z,78.90
2018-11-27T11:50:19.751Z,78.80
2018-11-27T11:52:52.853Z,75.60
2018-11-27T11:55:21.497Z,76.60
2018-11-27T11:57:49.956Z,77.90
2018-11-27T12:00:21.218Z,80.10
2018-11-27T12:02:49.747Z,82.80
2018-11-27T12:05:18.348Z,83.20
2018-11-27T12:07:46.887Z,81.70
2018-11-27T12:10:16.540Z,81.50
2018-11-27T12:12:46.517Z,81.60
2018-11-27T12:15:17.150Z,81.20
2018-11-27T12:17:46.274Z,81.50
2018-11-27T12:20:16.585Z,81.20
2018-11-27T12:22:47.554Z,80.40
2018-11-27T12:25:16.051Z,79.30
2018-11-27T12:27:44.483Z,79.00
2018-11-27T12:30:15.855Z,80.50
2018-11-27T12:32:44.438Z,80.00
2018-11-27T12:35:13.573Z,76.90
2018-11-27T12:37:42.224Z,74.90
2018-11-27T12:40:12.300Z,73.50
2018-11-27T12:42:41.061Z,72.20
2018-11-27T12:45:11.129Z,73.10
2018-11-27T12:47:39.967Z,74.10
2018-11-27T12:50:18.582Z,73.70
2018-11-27T12:52:47.317Z,74.10
2018-11-27T12:55:18.791Z,74.00
2018-11-27T12:57:47.351Z,74.20
2018-11-27T13:00:17.089Z,74.00
2018-11-27T13:02:45.742Z,73.80
2018-11-27T13:05:15.560Z,74.10
2018-11-27T13:07:44.166Z,76.50
2018-11-27T13:10:15.016Z,76.00
2018-11-27T13:12:44.477Z,75.90
2018-11-27T13:15:15.350Z,76.00
2018-11-27T13:17:43.845Z,76.20
2018-11-27T13:20:13.631Z,75.20
2018-11-27T13:22:43.413Z,75.00
2018-11-27T13:25:17.598Z,74.60
2018-11-27T13:27:46.163Z,74.90
2018-11-27T13:30:22.072Z,75.80
2018-11-27T13:32:52.516Z,75.80
2018-11-27T13:35:21.006Z,75.40
2018-11-27T13:37:49.649Z,75.50
2018-11-27T13:40:18.266Z,75.60
2018-11-27T13:42:46.855Z,75.90
2018-11-27T13:45:16.036Z,76.00
2018-11-27T13:47:44.707Z,75.60
2018-11-27T13:50:14.399Z,75.70
2018-11-27T13:52:42.996Z,76.20
2018-11-27T13:55:17.754Z,76.50
2018-11-27T13:57:46.324Z,76.90
2018-11-27T14:00:16.875Z,76.60
2018-11-27T14:02:50.154Z,76.40
2018-11-27T14:05:19.884Z,76.20
2018-11-27T14:07:48.499Z,76.30
2018-11-27T14:10:17.065Z,74.90
2018-11-27T14:12:45.673Z,75.10
2018-11-27T14:15:21.257Z,75.60
2018-11-27T14:17:50.483Z,76.00
2018-11-27T14:20:19.021Z,75.90
2018-11-27T14:22:48.306Z,77.00
2018-11-27T14:25:17.153Z,76.30
2018-11-27T14:27:46.035Z,76.00
2018-11-27T14:30:17.711Z,76.10
2018-11-27T14:32:46.683Z,76.60
2018-11-27T14:35:15.899Z,77.00
2018-11-27T14:37:45.350Z,77.30
2018-11-27T14:40:21.659Z,77.30
2018-11-27T14:42:50.193Z,76.70
2018-11-27T14:45:21.219Z,76.20
2018-11-27T14:47:52.203Z,75.90
2018-11-27T14:50:20.699Z,76.10
2018-11-27T14:52:49.363Z,76.20
2018-11-27T14:55:35.182Z,76.60
2018-11-27T14:58:03.760Z,76.40
2018-11-27T15:00:32.508Z,76.50
2018-11-27T15:03:01.146Z,76.60
2018-11-27T15:05:32.819Z,76.80
2018-11-27T15:08:02.018Z,76.90
2018-11-27T15:10:30.612Z,77.30
2018-11-27T15:12:59.220Z,77.60
2018-11-27T15:15:27.775Z,77.90
2018-11-27T15:17:56.303Z,78.30
2018-11-27T15:20:24.934Z,78.80
2018-11-27T15:22:53.614Z,79.10
2018-11-27T15:25:22.142Z,79.40
2018-11-27T15:27:50.617Z,79.60
2018-11-27T15:30:30.160Z,79.40
2018-11-27T15:32:59.799Z,79.30
2018-11-27T15:35:28.358Z,79.20
2018-11-27T15:37:57.965Z,79.30
2018-11-27T15:40:28.456Z,79.40
2018-11-27T15:42:56.940Z,79.60
2018-11-27T15:45:28.880Z,79.80
2018-11-27T15:47:57.453Z,80.40
2018-11-27T15:50:26.122Z,80.50
2018-11-27T15:52:54.846Z,81.40
2018-11-27T15:55:25.520Z,80.70
2018-11-27T15:57:56.540Z,80.80
2018-11-27T16:00:25.235Z,81.10
2018-11-27T16:02:53.922Z,81.10
2018-11-27T16:05:22.547Z,81.50
2018-11-27T16:07:51.315Z,81.50
2018-11-27T16:10:20.254Z,81.80
2018-11-27T16:12:48.787Z,81.40
2018-11-27T16:15:18.709Z,81.50
2018-11-27T16:17:48.030Z,81.60
2018-11-27T16:20:18.003Z,81.60
2018-11-27T16:22:47.524Z,81.70
2018-11-27T16:25:17.065Z,82.00
2018-11-27T16:27:46.067Z,82.90
2018-11-27T16:30:23.373Z,82.90
2018-11-27T16:32:52.095Z,82.90
2018-11-27T16:35:20.751Z,82.90
2018-11-27T16:37:52.552Z,82.90
2018-11-27T16:40:23.159Z,82.70
2018-11-27T16:42:51.611Z,82.70
2018-11-27T16:45:21.248Z,82.90
2018-11-27T16:47:50.170Z,83.10
2018-11-27T16:50:19.117Z,83.00
2018-11-27T16:52:48.015Z,83.10
2018-11-27T16:55:17.605Z,83.20
2018-11-27T16:57:46.179Z,83.40
2018-11-27T17:00:31.391Z,83.60
2018-11-27T17:03:00.994Z,83.60
2018-11-27T17:05:31.001Z,83.50
2018-11-27T17:07:59.656Z,83.30
2018-11-27T17:10:28.267Z,83.20
2018-11-27T17:12:57.866Z,82.90
2018-11-27T17:15:27.490Z,82.60
2018-11-27T17:17:56.021Z,82.20
2018-11-27T17:20:25.889Z,82.00
2018-11-27T17:22:55.236Z,82.90
2018-11-27T17:25:23.659Z,82.80
2018-11-27T17:27:53.005Z,82.70
2018-11-27T17:30:23.341Z,82.60
2018-11-27T17:32:52.779Z,82.60
2018-11-27T17:35:21.774Z,82.60
2018-11-27T17:37:50.429Z,82.50
2018-11-27T17:40:19.108Z,83.30
2018-11-27T17:42:47.791Z,82.60
2018-11-27T17:45:16.649Z,82.50
2018-11-27T17:47:45.789Z,82.50
2018-11-27T17:50:15.648Z,82.40
2018-11-27T17:52:44.155Z,82.20
2018-11-27T17:55:13.247Z,82.80
2018-11-27T17:57:41.826Z,81.80
2018-11-27T18:00:26.959Z,81.40
2018-11-27T18:02:57.055Z,81.00
2018-11-27T18:05:25.635Z,80.90
2018-11-27T18:07:54.151Z,80.50
2018-11-27T18:10:22.894Z,80.40
2018-11-27T18:12:51.620Z,80.30
2018-11-27T18:15:22.079Z,79.70
2018-11-27T18:17:50.614Z,79.40
2018-11-27T18:20:19.119Z,79.30
2018-11-27T18:22:47.776Z,78.90
2018-11-27T18:25:17.664Z,79.00
2018-11-27T18:27:47.143Z,79.10
2018-11-27T18:30:17.527Z,79.10
2018-11-27T18:32:46.087Z,79.10
2018-11-27T18:35:16.372Z,79.10
2018-11-27T18:37:45.055Z,79.20
2018-11-27T18:40:14.529Z,79.30
2018-11-27T18:42:43.318Z,79.20
2018-11-27T18:45:22.761Z,79.30
2018-11-27T18:47:51.364Z,79.20
2018-11-27T18:50:20.439Z,78.90
2018-11-27T18:52:48.952Z,78.80
2018-11-27T18:55:17.636Z,78.50
2018-11-27T18:57:47.110Z,78.30
2018-11-27T19:00:19.924Z,77.60
2018-11-27T19:02:48.630Z,78.10
2018-11-27T19:05:17.814Z,77.10
2018-11-27T19:07:46.534Z,76.50
2018-11-27T19:10:16.303Z,77.10
2018-11-27T19:12:44.931Z,76.40
2018-11-27T19:15:49.488Z,76.30
2018-11-27T19:18:20.143Z,76.30
2018-11-27T19:20:48.639Z,76.20
2018-11-27T19:23:18.270Z,75.80
2018-11-27T19:25:46.766Z,75.70
2018-11-27T19:28:15.417Z,75.40
2018-11-27T19:30:43.940Z,75.20
2018-11-27T19:33:12.558Z,74.90
2018-11-27T19:35:41.516Z,74.70
2018-11-27T19:38:11.659Z,74.40
2018-11-27T19:40:40.401Z,74.30
2018-11-27T19:43:08.886Z,74.00
2018-11-27T19:45:37.870Z,73.20
2018-11-27T19:48:07.664Z,73.30
2018-11-27T19:50:36.850Z,73.20
2018-11-27T19:53:12.013Z,73.10
2018-11-27T19:55:36.301Z,73.00
2018-11-27T19:58:06.190Z,72.70
2018-11-27T20:00:35.233Z,72.60
2018-11-27T20:03:04.496Z,72.40
2018-11-27T20:05:33.852Z,72.20
2018-11-27T20:08:03.158Z,72.30
2018-11-27T20:10:32.284Z,72.10
2018-11-27T20:13:01.472Z,72.20
2018-11-27T20:15:31.802Z,72.10
2018-11-27T20:18:01.060Z,71.60
2018-11-27T20:20:30.621Z,71.50
2018-11-27T20:23:00.544Z,71.50
2018-11-27T20:25:29.878Z,71.40
2018-11-27T20:27:59.284Z,71.20
2018-11-27T20:30:29.287Z,71.20
2018-11-27T20:33:03.022Z,70.60
2018-11-27T20:35:32.975Z,70.40
2018-11-27T20:38:04.261Z,70.10
2018-11-27T20:40:33.523Z,70.20
2018-11-27T20:43:03.113Z,70.00
2018-11-27T20:45:32.500Z,70.20
2018-11-27T20:48:08.095Z,70.10
2018-11-27T20:50:37.482Z,69.70
2018-11-27T20:53:06.837Z,69.50
2018-11-27T20:55:36.319Z,69.40
2018-11-27T20:58:05.506Z,69.50
2018-11-27T21:00:37.971Z,69.30
2018-11-27T21:03:08.184Z,69.40
2018-11-27T21:05:37.287Z,69.50
2018-11-27T21:08:07.296Z,69.50
2018-11-27T21:10:36.920Z,69.20
2018-11-27T21:13:06.563Z,68.80
2018-11-27T21:15:36.051Z,69.30
2018-11-27T21:18:05.399Z,69.80
2018-11-27T21:20:34.025Z,70.10
2018-11-27T21:23:03.010Z,70.40
2018-11-27T21:25:31.744Z,70.60
2018-11-27T21:28:10.082Z,71.40
2018-11-27T21:30:39.042Z,70.40
2018-11-27T21:33:07.570Z,70.00
2018-11-27T21:35:36.370Z,69.70
2018-11-27T21:38:05.378Z,69.30
2018-11-27T21:40:34.401Z,69.30
2018-11-27T21:43:03.030Z,69.20
2018-11-27T21:45:31.599Z,69.20
2018-11-27T21:48:00.157Z,69.70
2018-11-27T21:50:34.390Z,69.70
2018-11-27T21:53:02.824Z,69.70
2018-11-27T21:55:31.504Z,69.70
2018-11-27T21:58:00.183Z,69.50
2018-11-27T22:00:28.726Z,70.50
2018-11-27T22:02:57.285Z,69.60
2018-11-27T22:05:25.996Z,69.60
2018-11-27T22:07:54.548Z,69.70
2018-11-27T22:10:24.043Z,69.30
2018-11-27T22:12:54.271Z,68.80
2018-11-27T22:15:28.317Z,68.40
2018-11-27T22:17:56.992Z,68.70
2018-11-27T22:20:25.717Z,69.20
2018-11-27T22:22:54.461Z,69.20
2018-11-27T22:25:22.970Z,69.10
2018-11-27T22:27:52.175Z,68.60
2018-11-27T22:30:21.135Z,68.70
2018-11-27T22:32:50.707Z,69.00
2018-11-27T22:35:19.327Z,68.90
2018-11-27T22:37:48.143Z,68.70
2018-11-27T22:40:22.064Z,68.60
2018-11-27T22:42:51.242Z,68.80
2018-11-27T22:45:24.502Z,69.10
2018-11-27T22:47:53.044Z,68.70
2018-11-27T22:50:21.560Z,68.70
2018-11-27T22:52:50.421Z,68.80
2018-11-27T22:55:18.959Z,68.80
2018-11-27T22:57:47.706Z,68.80
2018-11-27T23:00:30.816Z,68.80
2018-11-27T23:02:59.433Z,68.70
2018-11-27T23:05:27.967Z,68.80
2018-11-27T23:07:56.571Z,68.60
2018-11-27T23:10:26.449Z,68.60
2018-11-27T23:12:55.098Z,68.70
2018-11-27T23:15:23.612Z,68.70
2018-11-27T23:17:52.081Z,68.70
2018-11-27T23:20:20.820Z,68.50
2018-11-27T23:22:49.544Z,68.10
2018-11-27T23:25:19.022Z,68.20
2018-11-27T23:27:47.697Z,68.30
2018-11-27T23:30:20.730Z,68.40
2018-11-27T23:32:49.322Z,68.40
2018-11-27T23:35:17.841Z,68.40
2018-11-27T23:37:46.449Z,68.30
2018-11-27T23:40:16.674Z,68.10
2018-11-27T23:42:45.848Z,68.30
2018-11-27T23:45:18.812Z,68.40
2018-11-27T23:47:47.320Z,68.30
2018-11-27T23:50:17.219Z,68.10
2018-11-27T23:52:46.106Z,67.90
2018-11-27T23:55:15.426Z,67.90
2018-11-27T23:57:44.398Z,67.50
